sensor_id;sensor_type;location;lat;lon;timestamp;pressure;altitude;pressure_sealevel;temperature;humidity
41830;BME280;38614;43.472;23.936;2023-02-25T00:02:16;99534.03;;;2.73;nan
41830;BME280;38614;43.472;23.936;2023-02-25T00:05:04;99531.63;;;2.72;nan
41830;BME280;38614;43.472;23.936;2023-02-25T00:07:53;99545.28;;;2.63;nan
41830;BME280;38614;43.472;23.936;2023-02-25T00:10:41;99532.09;;;2.48;nan
41830;BME280;38614;43.472;23.936;2023-02-25T00:13:29;99500.34;;;2.26;nan
41830;BME280;38614;43.472;23.936;2023-02-25T00:16:19;99527.59;;;2.26;nan
41830;BME280;38614;43.472;23.936;2023-02-25T00:19:07;99527.13;;;2.24;nan
41830;BME280;38614;43.472;23.936;2023-02-25T00:21:56;99500.47;;;2.12;nan
41830;BME280;38614;43.472;23.936;2023-02-25T00:24:44;99520.34;;;2.21;nan
41830;BME280;38614;43.472;23.936;2023-02-25T00:27:32;99481.88;;;1.97;nan
41830;BME280;38614;43.472;23.936;2023-02-25T00:30:21;99492.13;;;2.00;nan
41830;BME280;38614;43.472;23.936;2023-02-25T00:33:09;99509.13;;;1.97;nan
41830;BME280;38614;43.472;23.936;2023-02-25T00:35:57;99484.75;;;2.00;nan
41830;BME280;38614;43.472;23.936;2023-02-25T00:38:46;99523.22;;;1.99;nan
41830;BME280;38614;43.472;23.936;2023-02-25T00:41:35;99512.69;;;2.23;nan
41830;BME280;38614;43.472;23.936;2023-02-25T00:44:23;99509.41;;;2.04;nan
41830;BME280;38614;43.472;23.936;2023-02-25T00:47:11;99514.88;;;2.04;nan
41830;BME280;38614;43.472;23.936;2023-02-25T00:50:00;99513.25;;;1.94;nan
41830;BME280;38614;43.472;23.936;2023-02-25T00:52:48;99509.22;;;1.83;nan
41830;BME280;38614;43.472;23.936;2023-02-25T00:55:35;99499.09;;;1.75;nan
41830;BME280;38614;43.472;23.936;2023-02-25T00:58:23;99503.13;;;1.78;nan
41830;BME280;38614;43.472;23.936;2023-02-25T01:04:07;99494.16;;;1.77;nan
41830;BME280;38614;43.472;23.936;2023-02-25T01:06:57;99484.34;;;1.76;nan
41830;BME280;38614;43.472;23.936;2023-02-25T01:09:45;99500.25;;;1.83;nan
41830;BME280;38614;43.472;23.936;2023-02-25T01:12:33;99472.69;;;1.84;nan
41830;BME280;38614;43.472;23.936;2023-02-25T01:15:23;99438.66;;;1.56;nan
41830;BME280;38614;43.472;23.936;2023-02-25T01:18:11;99469.91;;;1.67;nan
41830;BME280;38614;43.472;23.936;2023-02-25T01:20:59;99421.13;;;1.31;nan
41830;BME280;38614;43.472;23.936;2023-02-25T01:23:48;99468.94;;;1.63;nan
41830;BME280;38614;43.472;23.936;2023-02-25T01:26:37;99468.19;;;1.71;nan
41830;BME280;38614;43.472;23.936;2023-02-25T01:29:28;99459.34;;;1.65;nan
41830;BME280;38614;43.472;23.936;2023-02-25T01:32:17;99450.84;;;1.58;nan
41830;BME280;38614;43.472;23.936;2023-02-25T01:35:05;99449.09;;;1.62;nan
41830;BME280;38614;43.472;23.936;2023-02-25T01:37:53;99444.25;;;1.51;nan
41830;BME280;38614;43.472;23.936;2023-02-25T01:40:41;99431.09;;;1.44;nan
41830;BME280;38614;43.472;23.936;2023-02-25T01:43:29;99442.94;;;1.48;nan
41830;BME280;38614;43.472;23.936;2023-02-25T01:46:17;99431.28;;;1.56;nan
41830;BME280;38614;43.472;23.936;2023-02-25T01:49:19;99422.16;;;1.52;nan
41830;BME280;38614;43.472;23.936;2023-02-25T01:52:12;99387.22;;;1.54;nan
41830;BME280;38614;43.472;23.936;2023-02-25T01:55:02;99414.63;;;1.66;nan
41830;BME280;38614;43.472;23.936;2023-02-25T01:57:51;99429.53;;;1.60;nan
41830;BME280;38614;43.472;23.936;2023-02-25T02:00:39;99420.38;;;1.56;nan
41830;BME280;38614;43.472;23.936;2023-02-25T02:03:31;99391.84;;;1.45;nan
41830;BME280;38614;43.472;23.936;2023-02-25T02:06:37;99417.84;;;1.60;nan
41830;BME280;38614;43.472;23.936;2023-02-25T02:09:27;99412.06;;;1.53;nan
41830;BME280;38614;43.472;23.936;2023-02-25T02:12:15;99415.69;;;1.31;nan
41830;BME280;38614;43.472;23.936;2023-02-25T02:15:07;99403.50;;;1.28;nan
41830;BME280;38614;43.472;23.936;2023-02-25T02:18:00;99391.75;;;1.10;nan
41830;BME280;38614;43.472;23.936;2023-02-25T02:27:38;99406.63;;;0.73;nan
41830;BME280;38614;43.472;23.936;2023-02-25T02:33:46;99393.66;;;0.70;nan
41830;BME280;38614;43.472;23.936;2023-02-25T02:40:17;99367.38;;;0.57;nan
41830;BME280;38614;43.472;23.936;2023-02-25T02:46:23;99405.53;;;0.83;nan
41830;BME280;38614;43.472;23.936;2023-02-25T02:49:16;99402.97;;;0.78;nan
41830;BME280;38614;43.472;23.936;2023-02-25T02:52:10;99399.13;;;0.79;nan
41830;BME280;38614;43.472;23.936;2023-02-25T02:55:33;99390.50;;;0.77;nan
41830;BME280;38614;43.472;23.936;2023-02-25T02:58:40;99376.91;;;0.77;nan
41830;BME280;38614;43.472;23.936;2023-02-25T03:01:42;99393.91;;;0.91;nan
41830;BME280;38614;43.472;23.936;2023-02-25T03:04:35;99351.63;;;0.76;nan
41830;BME280;38614;43.472;23.936;2023-02-25T03:07:24;99378.53;;;0.87;nan
41830;BME280;38614;43.472;23.936;2023-02-25T03:10:15;99372.75;;;0.79;nan
41830;BME280;38614;43.472;23.936;2023-02-25T03:13:05;99369.53;;;0.77;nan
41830;BME280;38614;43.472;23.936;2023-02-25T03:15:53;99382.38;;;0.85;nan
41830;BME280;38614;43.472;23.936;2023-02-25T03:18:50;99376.09;;;0.76;nan
41830;BME280;38614;43.472;23.936;2023-02-25T03:21:54;99366.28;;;0.67;nan
41830;BME280;38614;43.472;23.936;2023-02-25T03:24:54;99378.56;;;0.64;nan
41830;BME280;38614;43.472;23.936;2023-02-25T03:27:46;99374.31;;;0.72;nan
41830;BME280;38614;43.472;23.936;2023-02-25T03:30:45;99340.97;;;0.57;nan
41830;BME280;38614;43.472;23.936;2023-02-25T03:36:33;99345.78;;;0.30;nan
41830;BME280;38614;43.472;23.936;2023-02-25T03:39:28;99355.97;;;0.55;nan
41830;BME280;38614;43.472;23.936;2023-02-25T03:42:26;99360.19;;;0.61;nan
41830;BME280;38614;43.472;23.936;2023-02-25T03:45:15;99366.63;;;0.74;nan
41830;BME280;38614;43.472;23.936;2023-02-25T03:48:03;99350.16;;;0.70;nan
41830;BME280;38614;43.472;23.936;2023-02-25T03:50:59;99310.88;;;0.54;nan
41830;BME280;38614;43.472;23.936;2023-02-25T03:53:48;99315.66;;;0.48;nan
41830;BME280;38614;43.472;23.936;2023-02-25T03:56:49;99312.63;;;0.50;nan
41830;BME280;38614;43.472;23.936;2023-02-25T03:59:38;99346.91;;;0.60;nan
41830;BME280;38614;43.472;23.936;2023-02-25T04:02:29;99333.44;;;0.54;nan
41830;BME280;38614;43.472;23.936;2023-02-25T04:05:21;99339.72;;;0.64;nan
41830;BME280;38614;43.472;23.936;2023-02-25T04:08:09;99331.91;;;0.71;nan
41830;BME280;38614;43.472;23.936;2023-02-25T04:11:04;99318.44;;;0.57;nan
41830;BME280;38614;43.472;23.936;2023-02-25T04:13:52;99353.19;;;0.69;nan
41830;BME280;38614;43.472;23.936;2023-02-25T04:16:41;99351.38;;;0.64;nan
41830;BME280;38614;43.472;23.936;2023-02-25T04:19:29;99341.47;;;0.60;nan
41830;BME280;38614;43.472;23.936;2023-02-25T04:22:19;99337.63;;;0.61;nan
41830;BME280;38614;43.472;23.936;2023-02-25T04:25:07;99312.75;;;0.45;nan
41830;BME280;38614;43.472;23.936;2023-02-25T04:27:55;99334.09;;;0.60;nan
41830;BME280;38614;43.472;23.936;2023-02-25T04:30:43;99336.91;;;0.77;nan
41830;BME280;38614;43.472;23.936;2023-02-25T04:33:31;99328.88;;;0.72;nan
41830;BME280;38614;43.472;23.936;2023-02-25T04:36:30;99310.72;;;0.50;nan
41830;BME280;38614;43.472;23.936;2023-02-25T04:39:18;99324.69;;;0.66;nan
41830;BME280;38614;43.472;23.936;2023-02-25T04:42:06;99295.19;;;0.51;nan
41830;BME280;38614;43.472;23.936;2023-02-25T04:44:54;99310.56;;;0.55;nan
41830;BME280;38614;43.472;23.936;2023-02-25T04:47:42;99327.06;;;0.59;nan
41830;BME280;38614;43.472;23.936;2023-02-25T04:50:30;99308.03;;;0.59;nan
41830;BME280;38614;43.472;23.936;2023-02-25T04:53:18;99288.16;;;0.50;nan
41830;BME280;38614;43.472;23.936;2023-02-25T04:56:07;99285.59;;;0.53;nan
41830;BME280;38614;43.472;23.936;2023-02-25T04:58:56;99290.75;;;0.64;nan
41830;BME280;38614;43.472;23.936;2023-02-25T05:01:44;99284.78;;;0.44;nan
41830;BME280;38614;43.472;23.936;2023-02-25T05:04:33;99289.72;;;0.42;nan
41830;BME280;38614;43.472;23.936;2023-02-25T05:07:21;99282.31;;;0.34;nan
41830;BME280;38614;43.472;23.936;2023-02-25T05:10:11;99286.84;;;0.39;nan
41830;BME280;38614;43.472;23.936;2023-02-25T05:13:00;99276.41;;;0.32;nan
41830;BME280;38614;43.472;23.936;2023-02-25T05:15:48;99282.16;;;0.31;nan
41830;BME280;38614;43.472;23.936;2023-02-25T05:18:38;99281.16;;;0.26;nan
41830;BME280;38614;43.472;23.936;2023-02-25T05:21:25;99282.44;;;-0.02;nan
41830;BME280;38614;43.472;23.936;2023-02-25T05:24:13;99299.31;;;0.17;nan
41830;BME280;38614;43.472;23.936;2023-02-25T05:27:01;99286.75;;;0.21;nan
41830;BME280;38614;43.472;23.936;2023-02-25T05:29:55;99294.31;;;0.33;nan
41830;BME280;38614;43.472;23.936;2023-02-25T05:32:43;99295.63;;;0.13;nan
41830;BME280;38614;43.472;23.936;2023-02-25T05:35:32;99314.34;;;0.15;nan
41830;BME280;38614;43.472;23.936;2023-02-25T05:38:20;99302.00;;;0.09;nan
41830;BME280;38614;43.472;23.936;2023-02-25T05:41:09;99301.66;;;0.33;nan
41830;BME280;38614;43.472;23.936;2023-02-25T05:43:57;99283.06;;;0.26;nan
41830;BME280;38614;43.472;23.936;2023-02-25T05:46:45;99301.44;;;0.51;nan
41830;BME280;38614;43.472;23.936;2023-02-25T05:49:32;99306.63;;;0.70;nan
41830;BME280;38614;43.472;23.936;2023-02-25T05:52:20;99312.47;;;0.55;nan
41830;BME280;38614;43.472;23.936;2023-02-25T05:55:08;99312.16;;;0.48;nan
41830;BME280;38614;43.472;23.936;2023-02-25T05:57:57;99308.59;;;0.78;nan
41830;BME280;38614;43.472;23.936;2023-02-25T06:00:45;99287.94;;;0.77;nan
41830;BME280;38614;43.472;23.936;2023-02-25T06:03:32;99265.91;;;0.88;nan
41830;BME280;38614;43.472;23.936;2023-02-25T06:06:20;99260.81;;;0.95;nan
41830;BME280;38614;43.472;23.936;2023-02-25T06:09:13;99262.25;;;1.09;nan
41830;BME280;38614;43.472;23.936;2023-02-25T06:12:05;99261.97;;;1.28;nan
41830;BME280;38614;43.472;23.936;2023-02-25T06:14:53;99265.19;;;1.30;nan
41830;BME280;38614;43.472;23.936;2023-02-25T06:17:41;99279.91;;;1.47;nan
41830;BME280;38614;43.472;23.936;2023-02-25T06:20:28;99282.81;;;1.50;nan
41830;BME280;38614;43.472;23.936;2023-02-25T06:23:18;99277.53;;;1.71;nan
41830;BME280;38614;43.472;23.936;2023-02-25T06:26:08;99277.84;;;1.87;nan
41830;BME280;38614;43.472;23.936;2023-02-25T06:28:56;99272.88;;;1.63;nan
41830;BME280;38614;43.472;23.936;2023-02-25T06:31:44;99273.53;;;1.60;nan
41830;BME280;38614;43.472;23.936;2023-02-25T06:34:32;99264.03;;;1.92;nan
41830;BME280;38614;43.472;23.936;2023-02-25T06:37:24;99261.81;;;2.41;nan
41830;BME280;38614;43.472;23.936;2023-02-25T06:40:15;99267.09;;;2.84;nan
41830;BME280;38614;43.472;23.936;2023-02-25T06:43:04;99248.06;;;2.96;nan
41830;BME280;38614;43.472;23.936;2023-02-25T06:45:52;99258.50;;;3.24;nan
41830;BME280;38614;43.472;23.936;2023-02-25T06:48:40;99247.59;;;3.45;nan
41830;BME280;38614;43.472;23.936;2023-02-25T06:51:31;99240.22;;;3.45;nan
41830;BME280;38614;43.472;23.936;2023-02-25T06:54:18;99248.53;;;3.28;nan
41830;BME280;38614;43.472;23.936;2023-02-25T06:57:06;99255.97;;;3.60;nan
41830;BME280;38614;43.472;23.936;2023-02-25T06:59:54;99249.75;;;3.72;nan
41830;BME280;38614;43.472;23.936;2023-02-25T07:02:41;99255.97;;;3.60;nan
41830;BME280;38614;43.472;23.936;2023-02-25T07:05:29;99235.38;;;3.84;nan
41830;BME280;38614;43.472;23.936;2023-02-25T07:08:17;99223.66;;;3.95;nan
41830;BME280;38614;43.472;23.936;2023-02-25T07:14:05;99227.59;;;3.74;nan
41830;BME280;38614;43.472;23.936;2023-02-25T07:16:53;99220.41;;;3.81;nan
41830;BME280;38614;43.472;23.936;2023-02-25T07:19:44;99220.03;;;3.91;nan
41830;BME280;38614;43.472;23.936;2023-02-25T07:22:32;99220.22;;;4.19;nan
41830;BME280;38614;43.472;23.936;2023-02-25T07:25:20;99229.22;;;4.44;nan
41830;BME280;38614;43.472;23.936;2023-02-25T07:28:08;99218.41;;;4.60;nan
41830;BME280;38614;43.472;23.936;2023-02-25T07:31:01;99225.47;;;4.61;nan
41830;BME280;38614;43.472;23.936;2023-02-25T07:33:54;99210.22;;;4.60;nan
41830;BME280;38614;43.472;23.936;2023-02-25T07:36:41;99204.72;;;4.72;nan
41830;BME280;38614;43.472;23.936;2023-02-25T07:39:29;99210.41;;;4.92;nan
41830;BME280;38614;43.472;23.936;2023-02-25T07:42:17;99213.16;;;4.92;nan
41830;BME280;38614;43.472;23.936;2023-02-25T07:45:08;99218.63;;;4.92;nan
41830;BME280;38614;43.472;23.936;2023-02-25T07:47:56;99217.03;;;5.03;nan
41830;BME280;38614;43.472;23.936;2023-02-25T07:50:44;99199.72;;;4.86;nan
41830;BME280;38614;43.472;23.936;2023-02-25T07:53:32;99192.72;;;5.01;nan
41830;BME280;38614;43.472;23.936;2023-02-25T07:56:22;99177.78;;;4.99;nan
41830;BME280;38614;43.472;23.936;2023-02-25T07:59:10;99146.19;;;4.89;nan
41830;BME280;38614;43.472;23.936;2023-02-25T08:01:57;99156.81;;;4.91;nan
41830;BME280;38614;43.472;23.936;2023-02-25T08:04:46;99154.78;;;4.75;nan
41830;BME280;38614;43.472;23.936;2023-02-25T08:07:34;99179.38;;;5.12;nan
41830;BME280;38614;43.472;23.936;2023-02-25T08:10:21;99168.63;;;5.07;nan
41830;BME280;38614;43.472;23.936;2023-02-25T08:13:12;99171.16;;;5.12;nan
41830;BME280;38614;43.472;23.936;2023-02-25T08:16:06;99162.22;;;5.15;nan
41830;BME280;38614;43.472;23.936;2023-02-25T08:18:54;99170.72;;;5.38;nan
41830;BME280;38614;43.472;23.936;2023-02-25T08:21:42;99178.19;;;5.53;nan
41830;BME280;38614;43.472;23.936;2023-02-25T08:24:30;99160.38;;;5.75;nan
41830;BME280;38614;43.472;23.936;2023-02-25T08:27:19;99169.66;;;5.98;nan
41830;BME280;38614;43.472;23.936;2023-02-25T08:30:08;99156.31;;;6.13;nan
41830;BME280;38614;43.472;23.936;2023-02-25T08:32:56;99169.16;;;6.24;nan
41830;BME280;38614;43.472;23.936;2023-02-25T08:35:44;99155.09;;;6.26;nan
41830;BME280;38614;43.472;23.936;2023-02-25T08:38:32;99150.47;;;6.30;nan
41830;BME280;38614;43.472;23.936;2023-02-25T08:41:20;99156.31;;;6.13;nan
41830;BME280;38614;43.472;23.936;2023-02-25T08:44:08;99157.00;;;6.41;nan
41830;BME280;38614;43.472;23.936;2023-02-25T08:47:00;99145.66;;;6.58;nan
41830;BME280;38614;43.472;23.936;2023-02-25T08:49:52;99145.44;;;6.83;nan
41830;BME280;38614;43.472;23.936;2023-02-25T08:52:40;99144.31;;;7.03;nan
41830;BME280;38614;43.472;23.936;2023-02-25T08:55:28;99132.47;;;7.19;nan
41830;BME280;38614;43.472;23.936;2023-02-25T08:58:16;99116.84;;;7.23;nan
41830;BME280;38614;43.472;23.936;2023-02-25T09:01:13;99124.44;;;7.49;nan
41830;BME280;38614;43.472;23.936;2023-02-25T09:04:01;99122.47;;;7.68;nan
41830;BME280;38614;43.472;23.936;2023-02-25T09:06:50;99114.59;;;7.90;nan
41830;BME280;38614;43.472;23.936;2023-02-25T09:09:41;99103.28;;;7.95;nan
41830;BME280;38614;43.472;23.936;2023-02-25T09:12:29;99085.97;;;8.17;nan
41830;BME280;38614;43.472;23.936;2023-02-25T09:15:17;99097.28;;;8.35;nan
41830;BME280;38614;43.472;23.936;2023-02-25T09:18:05;99082.38;;;8.36;nan
41830;BME280;38614;43.472;23.936;2023-02-25T09:20:53;99071.59;;;8.27;nan
41830;BME280;38614;43.472;23.936;2023-02-25T09:23:41;99102.44;;;8.63;nan
41830;BME280;38614;43.472;23.936;2023-02-25T09:26:38;99079.75;;;8.73;nan
41830;BME280;38614;43.472;23.936;2023-02-25T09:29:28;99086.41;;;8.99;nan
41830;BME280;38614;43.472;23.936;2023-02-25T09:32:19;99081.00;;;9.06;nan
41830;BME280;38614;43.472;23.936;2023-02-25T09:35:08;99071.56;;;9.07;nan
41830;BME280;38614;43.472;23.936;2023-02-25T09:37:57;99078.16;;;9.32;nan
41830;BME280;38614;43.472;23.936;2023-02-25T09:40:47;99064.00;;;9.34;nan
41830;BME280;38614;43.472;23.936;2023-02-25T09:43:39;99047.22;;;9.50;nan
41830;BME280;38614;43.472;23.936;2023-02-25T09:46:30;99048.31;;;9.82;nan
41830;BME280;38614;43.472;23.936;2023-02-25T09:49:28;99028.44;;;10.10;nan
41830;BME280;38614;43.472;23.936;2023-02-25T09:55:23;98984.78;;;10.23;nan
41830;BME280;38614;43.472;23.936;2023-02-25T10:05:22;98999.63;;;10.70;nan
41830;BME280;38614;43.472;23.936;2023-02-25T10:07:56;98967.66;;;10.62;nan
41830;BME280;38614;43.472;23.936;2023-02-25T10:10:55;98984.72;;;10.85;nan
41830;BME280;38614;43.472;23.936;2023-02-25T10:13:55;98968.91;;;10.85;nan
41830;BME280;38614;43.472;23.936;2023-02-25T10:16:56;98957.53;;;11.01;nan
41830;BME280;38614;43.472;23.936;2023-02-25T10:26:35;98959.22;;;11.81;nan
41830;BME280;38614;43.472;23.936;2023-02-25T10:29:41;98952.50;;;11.96;nan
41830;BME280;38614;43.472;23.936;2023-02-25T10:32:36;98947.34;;;12.12;nan
41830;BME280;38614;43.472;23.936;2023-02-25T10:35:28;98935.84;;;12.24;nan
41830;BME280;38614;43.472;23.936;2023-02-25T10:38:16;98926.25;;;12.54;nan
41830;BME280;38614;43.472;23.936;2023-02-25T10:41:04;98921.16;;;13.19;nan
41830;BME280;38614;43.472;23.936;2023-02-25T10:43:53;98936.50;;;13.41;nan
41830;BME280;38614;43.472;23.936;2023-02-25T10:49:35;98921.25;;;13.04;nan
41830;BME280;38614;43.472;23.936;2023-02-25T10:52:26;98920.78;;;13.24;nan
41830;BME280;38614;43.472;23.936;2023-02-25T10:55:25;98902.94;;;13.18;nan
41830;BME280;38614;43.472;23.936;2023-02-25T11:01:34;98912.59;;;12.92;nan
41830;BME280;38614;43.472;23.936;2023-02-25T11:04:35;98911.72;;;13.12;nan
41830;BME280;38614;43.472;23.936;2023-02-25T11:10:22;98914.56;;;13.61;nan
41830;BME280;38614;43.472;23.936;2023-02-25T11:13:29;98902.34;;;13.51;nan
41830;BME280;38614;43.472;23.936;2023-02-25T11:16:17;98907.09;;;13.51;nan
41830;BME280;38614;43.472;23.936;2023-02-25T11:19:24;98906.22;;;12.98;nan
41830;BME280;38614;43.472;23.936;2023-02-25T11:22:21;98908.59;;;13.03;nan
41830;BME280;38614;43.472;23.936;2023-02-25T11:25:18;98887.03;;;13.32;nan
41830;BME280;38614;43.472;23.936;2023-02-25T11:28:19;98894.34;;;13.57;nan
41830;BME280;38614;43.472;23.936;2023-02-25T11:31:16;98897.91;;;13.57;nan
41830;BME280;38614;43.472;23.936;2023-02-25T11:34:13;98908.91;;;13.72;nan
41830;BME280;38614;43.472;23.936;2023-02-25T11:37:24;98921.22;;;13.67;nan
41830;BME280;38614;43.472;23.936;2023-02-25T11:40:28;98905.63;;;13.35;nan
41830;BME280;38614;43.472;23.936;2023-02-25T11:43:18;98913.28;;;13.69;nan
41830;BME280;38614;43.472;23.936;2023-02-25T11:46:19;98899.53;;;13.55;nan
41830;BME280;38614;43.472;23.936;2023-02-25T11:52:22;98914.78;;;14.18;nan
41830;BME280;38614;43.472;23.936;2023-02-25T12:11:42;98919.69;;;14.45;nan
41830;BME280;38614;43.472;23.936;2023-02-25T12:19:06;98905.25;;;14.57;nan
41830;BME280;38614;43.472;23.936;2023-02-25T12:21:46;98893.94;;;15.02;nan
41830;BME280;38614;43.472;23.936;2023-02-25T12:41:47;98884.84;;;13.95;nan
41830;BME280;38614;43.472;23.936;2023-02-25T12:48:01;98873.50;;;13.83;nan
41830;BME280;38614;43.472;23.936;2023-02-25T13:23:18;98834.44;;;14.01;nan
41830;BME280;38614;43.472;23.936;2023-02-25T13:26:36;98835.59;;;14.03;nan
41830;BME280;38614;43.472;23.936;2023-02-25T13:29:36;98834.44;;;14.01;nan
41830;BME280;38614;43.472;23.936;2023-02-25T13:33:07;98821.19;;;14.15;nan
41830;BME280;38614;43.472;23.936;2023-02-25T13:36:16;98796.97;;;14.16;nan
41830;BME280;38614;43.472;23.936;2023-02-25T13:58:47;98812.06;;;14.76;nan
41830;BME280;38614;43.472;23.936;2023-02-25T14:23:54;98800.13;;;14.48;nan
41830;BME280;38614;43.472;23.936;2023-02-25T14:35:55;98820.56;;;14.31;nan
41830;BME280;38614;43.472;23.936;2023-02-25T14:45:32;98833.72;;;14.61;nan
41830;BME280;38614;43.472;23.936;2023-02-25T14:48:24;98821.66;;;14.71;nan
41830;BME280;38614;43.472;23.936;2023-02-25T15:14:09;98821.81;;;15.85;nan
41830;BME280;38614;43.472;23.936;2023-02-25T15:32:29;98852.94;;;15.56;nan
41830;BME280;38614;43.472;23.936;2023-02-25T15:38:45;98881.91;;;15.59;nan
41830;BME280;38614;43.472;23.936;2023-02-25T15:53:41;98868.25;;;14.64;nan
41830;BME280;38614;43.472;23.936;2023-02-25T15:56:46;98886.22;;;14.56;nan
41830;BME280;38614;43.472;23.936;2023-02-25T15:59:48;98897.94;;;14.36;nan
41830;BME280;38614;43.472;23.936;2023-02-25T16:02:40;98890.38;;;14.37;nan
41830;BME280;38614;43.472;23.936;2023-02-25T16:05:32;98877.53;;;14.16;nan
41830;BME280;38614;43.472;23.936;2023-02-25T16:08:27;98865.81;;;13.97;nan
41830;BME280;38614;43.472;23.936;2023-02-25T16:14:31;98864.25;;;13.96;nan
41830;BME280;38614;43.472;23.936;2023-02-25T16:17:39;98864.00;;;14.18;nan
41830;BME280;38614;43.472;23.936;2023-02-25T16:20:39;98856.22;;;14.06;nan
41830;BME280;38614;43.472;23.936;2023-02-25T16:23:38;98835.78;;;13.85;nan
41830;BME280;38614;43.472;23.936;2023-02-25T16:26:57;98865.41;;;13.95;nan
41830;BME280;38614;43.472;23.936;2023-02-25T16:30:39;98863.22;;;13.80;nan
41830;BME280;38614;43.472;23.936;2023-02-25T16:33:28;98861.72;;;13.72;nan
41830;BME280;38614;43.472;23.936;2023-02-25T16:39:20;98859.28;;;13.29;nan
41830;BME280;38614;43.472;23.936;2023-02-25T16:42:15;98868.13;;;13.13;nan
41830;BME280;38614;43.472;23.936;2023-02-25T16:45:07;98877.69;;;13.05;nan
41830;BME280;38614;43.472;23.936;2023-02-25T16:47:57;98861.59;;;12.78;nan
41830;BME280;38614;43.472;23.936;2023-02-25T16:50:47;98877.03;;;12.79;nan
41830;BME280;38614;43.472;23.936;2023-02-25T16:53:43;98876.31;;;12.65;nan
41830;BME280;38614;43.472;23.936;2023-02-25T16:56:32;98886.66;;;12.53;nan
41830;BME280;38614;43.472;23.936;2023-02-25T16:59:21;98879.63;;;12.35;nan
41830;BME280;38614;43.472;23.936;2023-02-25T17:05:01;98878.47;;;12.18;nan
41830;BME280;38614;43.472;23.936;2023-02-25T17:07:54;98897.88;;;12.21;nan
41830;BME280;38614;43.472;23.936;2023-02-25T17:10:54;98867.47;;;12.04;nan
41830;BME280;38614;43.472;23.936;2023-02-25T17:13:44;98887.56;;;12.25;nan
41830;BME280;38614;43.472;23.936;2023-02-25T17:16:40;98892.22;;;12.50;nan
41830;BME280;38614;43.472;23.936;2023-02-25T17:19:30;98896.06;;;12.74;nan
41830;BME280;38614;43.472;23.936;2023-02-25T17:22:20;98894.50;;;12.76;nan
41830;BME280;38614;43.472;23.936;2023-02-25T17:25:11;98898.34;;;12.90;nan
41830;BME280;38614;43.472;23.936;2023-02-25T17:28:05;98906.16;;;13.12;nan
41830;BME280;38614;43.472;23.936;2023-02-25T17:31:10;98904.72;;;12.87;nan
41830;BME280;38614;43.472;23.936;2023-02-25T17:34:02;98901.22;;;12.75;nan
41830;BME280;38614;43.472;23.936;2023-02-25T17:36:50;98892.13;;;12.71;nan
41830;BME280;38614;43.472;23.936;2023-02-25T17:39:39;98885.41;;;12.65;nan
41830;BME280;38614;43.472;23.936;2023-02-25T17:42:35;98894.59;;;12.51;nan
41830;BME280;38614;43.472;23.936;2023-02-25T17:45:57;98892.69;;;12.31;nan
41830;BME280;38614;43.472;23.936;2023-02-25T17:48:56;98856.75;;;12.09;nan
41830;BME280;38614;43.472;23.936;2023-02-25T17:51:45;98887.56;;;12.18;nan
41830;BME280;38614;43.472;23.936;2023-02-25T17:54:35;98877.34;;;12.05;nan
41830;BME280;38614;43.472;23.936;2023-02-25T17:57:24;98877.34;;;11.90;nan
41830;BME280;38614;43.472;23.936;2023-02-25T18:00:35;98864.72;;;11.79;nan
41830;BME280;38614;43.472;23.936;2023-02-25T18:03:24;98854.06;;;11.66;nan
41830;BME280;38614;43.472;23.936;2023-02-25T18:12:29;98863.97;;;11.50;nan
41830;BME280;38614;43.472;23.936;2023-02-25T18:15:23;98856.47;;;11.29;nan
41830;BME280;38614;43.472;23.936;2023-02-25T18:18:20;98840.25;;;11.09;nan
41830;BME280;38614;43.472;23.936;2023-02-25T18:21:09;98857.63;;;11.06;nan
41830;BME280;38614;43.472;23.936;2023-02-25T18:24:00;98843.38;;;10.97;nan
41830;BME280;38614;43.472;23.936;2023-02-25T18:27:29;98835.88;;;10.80;nan
41830;BME280;38614;43.472;23.936;2023-02-25T18:30:21;98846.94;;;10.80;nan
41830;BME280;38614;43.472;23.936;2023-02-25T18:33:12;98834.69;;;10.74;nan
41830;BME280;38614;43.472;23.936;2023-02-25T18:36:00;98839.03;;;10.71;nan
41830;BME280;38614;43.472;23.936;2023-02-25T18:38:51;98818.03;;;10.49;nan
41830;BME280;38614;43.472;23.936;2023-02-25T18:41:39;98821.16;;;10.40;nan
41830;BME280;38614;43.472;23.936;2023-02-25T18:44:28;98839.78;;;10.54;nan
41830;BME280;38614;43.472;23.936;2023-02-25T18:47:19;98844.91;;;10.70;nan
41830;BME280;38614;43.472;23.936;2023-02-25T18:50:09;98833.88;;;10.66;nan
41830;BME280;38614;43.472;23.936;2023-02-25T18:52:58;98853.22;;;10.70;nan
41830;BME280;38614;43.472;23.936;2023-02-25T18:55:46;98845.69;;;10.52;nan
41830;BME280;38614;43.472;23.936;2023-02-25T18:58:35;98838.59;;;10.55;nan
41830;BME280;38614;43.472;23.936;2023-02-25T19:01:25;98861.84;;;10.50;nan
41830;BME280;38614;43.472;23.936;2023-02-25T19:04:15;98856.69;;;10.38;nan
41830;BME280;38614;43.472;23.936;2023-02-25T19:07:09;98851.13;;;10.31;nan
41830;BME280;38614;43.472;23.936;2023-02-25T19:09:57;98850.25;;;10.20;nan
41830;BME280;38614;43.472;23.936;2023-02-25T19:12:46;98874.78;;;10.28;nan
41830;BME280;38614;43.472;23.936;2023-02-25T19:15:37;98855.09;;;10.37;nan
41830;BME280;38614;43.472;23.936;2023-02-25T19:18:25;98850.41;;;10.48;nan
41830;BME280;38614;43.472;23.936;2023-02-25T19:21:16;98864.16;;;10.41;nan
41830;BME280;38614;43.472;23.936;2023-02-25T19:24:04;98873.97;;;10.24;nan
41830;BME280;38614;43.472;23.936;2023-02-25T19:26:52;98879.03;;;10.15;nan
41830;BME280;38614;43.472;23.936;2023-02-25T19:29:40;98884.06;;;10.03;nan
41830;BME280;38614;43.472;23.936;2023-02-25T19:32:29;98895.56;;;10.12;nan
41830;BME280;38614;43.472;23.936;2023-02-25T19:35:16;98884.91;;;10.10;nan
41830;BME280;38614;43.472;23.936;2023-02-25T19:38:06;98899.09;;;10.05;nan
41830;BME280;38614;43.472;23.936;2023-02-25T19:40:59;98901.47;;;10.14;nan
41830;BME280;38614;43.472;23.936;2023-02-25T19:43:47;98898.25;;;9.97;nan
41830;BME280;38614;43.472;23.936;2023-02-25T19:46:35;98899.44;;;9.96;nan